Terminal Aerodrome Forecast
Issued by NWS

Home | Current Version | Previous Version | Text Only | Print | Product List | Glossary On
Versions: 1 2 3 4 5 6 7 8 9 10 11 12 13 14 15 16 17 18
311
FTUS44 KLZK 221328 AAA
TAFHRO
TAF AMD
KHRO 221328Z 2213/2312 22008KT P6SM VCTS SCT050CB BKN250
      TEMPO 2213/2217 VRB10G18KT 5SM -TSRA BR
     FM221700 24008G16KT P6SM VCTS SCT050CB OVC250
     FM230300 32008KT P6SM VCSH SCT040 BKN100=

USA.gov is the U.S. government's official web portal to all federal, state and local government web resources and services.